Terminal Aerodrome Forecast
Issued by NWS

Home | Current Version | Previous Version | Text Only | Print | Product List | Glossary On
Versions: 1 2 3 4 5 6 7 8 9 10 11 12 13 14 15 16 17 18 19 20 21 22 23 24 25 26 27 28 29 30
000
FTAK31 PANC 230532
TAFASD
TAF
PASD 230532Z 2306/2406 33017G24KT 6SM -SHRA BKN025 OVC040
      TEMPO 2306/2308 SCT025 OVC040
     FM230800 30027G35KT P6SM VCSH SCT030 BKN050
     FM231200 29035G45KT 6SM -SHRA SCT020 OVC030
     FM231500 30042G58KT 5SM -SHRA SCT020 OVC030
     FM240300 33040G50KT P6SM SCT030
      AMD LTD TO CLD VIS AND WIND=

USA.gov is the U.S. government's official web portal to all federal, state and local government web resources and services.